sensor_id;sensor_type;location;lat;lon;timestamp;P1;durP1;ratioP1;P2;durP2;ratioP2
75450;SDS011;64029;48.244;9.188;2023-04-06T00:00:23;10.57;;;7.40;;
75450;SDS011;64029;48.244;9.188;2023-04-06T00:02:51;8.40;;;7.50;;
75450;SDS011;64029;48.244;9.188;2023-04-06T00:05:18;10.20;;;6.73;;
75450;SDS011;64029;48.244;9.188;2023-04-06T00:07:45;11.23;;;7.50;;
75450;SDS011;64029;48.244;9.188;2023-04-06T00:10:12;7.60;;;5.63;;
75450;SDS011;64029;48.244;9.188;2023-04-06T00:12:39;9.27;;;6.47;;
75450;SDS011;64029;48.244;9.188;2023-04-06T00:15:06;7.97;;;6.67;;
75450;SDS011;64029;48.244;9.188;2023-04-06T00:17:35;10.73;;;7.37;;
75450;SDS011;64029;48.244;9.188;2023-04-06T00:20:02;10.30;;;6.80;;
75450;SDS011;64029;48.244;9.188;2023-04-06T00:22:30;10.60;;;7.13;;
75450;SDS011;64029;48.244;9.188;2023-04-06T00:24:57;7.33;;;6.33;;
75450;SDS011;64029;48.244;9.188;2023-04-06T00:27:24;8.60;;;6.40;;
75450;SDS011;64029;48.244;9.188;2023-04-06T00:29:51;8.10;;;6.63;;
75450;SDS011;64029;48.244;9.188;2023-04-06T00:32:18;9.53;;;6.50;;
75450;SDS011;64029;48.244;9.188;2023-04-06T00:34:46;8.07;;;6.63;;
75450;SDS011;64029;48.244;9.188;2023-04-06T00:37:13;8.97;;;7.07;;
75450;SDS011;64029;48.244;9.188;2023-04-06T00:39:40;10.43;;;6.27;;
75450;SDS011;64029;48.244;9.188;2023-04-06T00:42:08;8.93;;;6.70;;
75450;SDS011;64029;48.244;9.188;2023-04-06T00:44:38;11.70;;;6.70;;
75450;SDS011;64029;48.244;9.188;2023-04-06T00:47:05;8.23;;;6.90;;
75450;SDS011;64029;48.244;9.188;2023-04-06T00:49:33;8.67;;;5.93;;
75450;SDS011;64029;48.244;9.188;2023-04-06T00:52:02;8.37;;;6.00;;
75450;SDS011;64029;48.244;9.188;2023-04-06T00:54:29;7.20;;;5.80;;
75450;SDS011;64029;48.244;9.188;2023-04-06T00:56:56;6.37;;;5.53;;
75450;SDS011;64029;48.244;9.188;2023-04-06T00:59:24;7.30;;;6.03;;
75450;SDS011;64029;48.244;9.188;2023-04-06T01:01:51;7.07;;;6.13;;
75450;SDS011;64029;48.244;9.188;2023-04-06T01:04:17;9.83;;;6.77;;
75450;SDS011;64029;48.244;9.188;2023-04-06T01:06:45;6.83;;;6.10;;
75450;SDS011;64029;48.244;9.188;2023-04-06T01:09:13;8.70;;;6.37;;
75450;SDS011;64029;48.244;9.188;2023-04-06T01:11:40;9.80;;;6.60;;
75450;SDS011;64029;48.244;9.188;2023-04-06T01:14:07;7.93;;;6.23;;
75450;SDS011;64029;48.244;9.188;2023-04-06T01:16:34;6.63;;;5.43;;
75450;SDS011;64029;48.244;9.188;2023-04-06T01:19:06;7.40;;;6.33;;
75450;SDS011;64029;48.244;9.188;2023-04-06T01:21:34;8.17;;;6.43;;
75450;SDS011;64029;48.244;9.188;2023-04-06T01:24:02;8.47;;;6.00;;
75450;SDS011;64029;48.244;9.188;2023-04-06T01:26:30;10.80;;;6.23;;
75450;SDS011;64029;48.244;9.188;2023-04-06T01:28:58;8.67;;;6.20;;
75450;SDS011;64029;48.244;9.188;2023-04-06T01:31:25;9.43;;;6.27;;
75450;SDS011;64029;48.244;9.188;2023-04-06T01:33:52;6.63;;;6.00;;
75450;SDS011;64029;48.244;9.188;2023-04-06T01:36:20;10.13;;;6.60;;
75450;SDS011;64029;48.244;9.188;2023-04-06T01:38:47;8.63;;;6.03;;
75450;SDS011;64029;48.244;9.188;2023-04-06T01:41:16;7.80;;;6.13;;
75450;SDS011;64029;48.244;9.188;2023-04-06T01:43:43;6.40;;;5.80;;
75450;SDS011;64029;48.244;9.188;2023-04-06T01:46:10;7.47;;;5.90;;
75450;SDS011;64029;48.244;9.188;2023-04-06T01:48:37;7.60;;;6.77;;
75450;SDS011;64029;48.244;9.188;2023-04-06T01:51:04;8.00;;;6.60;;
75450;SDS011;64029;48.244;9.188;2023-04-06T01:53:31;9.50;;;6.70;;
75450;SDS011;64029;48.244;9.188;2023-04-06T01:55:58;9.10;;;6.80;;
75450;SDS011;64029;48.244;9.188;2023-04-06T01:58:26;9.23;;;6.13;;
75450;SDS011;64029;48.244;9.188;2023-04-06T02:00:53;12.00;;;6.60;;
75450;SDS011;64029;48.244;9.188;2023-04-06T02:03:21;12.70;;;5.90;;
75450;SDS011;64029;48.244;9.188;2023-04-06T02:05:48;8.13;;;6.97;;
75450;SDS011;64029;48.244;9.188;2023-04-06T02:08:15;9.70;;;6.57;;
75450;SDS011;64029;48.244;9.188;2023-04-06T02:10:42;9.23;;;6.47;;
75450;SDS011;64029;48.244;9.188;2023-04-06T02:13:08;11.30;;;6.83;;
75450;SDS011;64029;48.244;9.188;2023-04-06T02:15:37;9.40;;;6.47;;
75450;SDS011;64029;48.244;9.188;2023-04-06T02:18:04;7.20;;;6.40;;
75450;SDS011;64029;48.244;9.188;2023-04-06T02:20:31;9.23;;;6.53;;
75450;SDS011;64029;48.244;9.188;2023-04-06T02:22:58;8.40;;;6.53;;
75450;SDS011;64029;48.244;9.188;2023-04-06T02:25:26;7.57;;;6.50;;
75450;SDS011;64029;48.244;9.188;2023-04-06T02:27:53;10.23;;;6.63;;
75450;SDS011;64029;48.244;9.188;2023-04-06T02:30:20;9.03;;;6.80;;
75450;SDS011;64029;48.244;9.188;2023-04-06T02:32:48;9.77;;;7.10;;
75450;SDS011;64029;48.244;9.188;2023-04-06T02:35:15;7.87;;;6.87;;
75450;SDS011;64029;48.244;9.188;2023-04-06T02:37:43;7.80;;;6.53;;
75450;SDS011;64029;48.244;9.188;2023-04-06T02:40:10;8.60;;;6.70;;
75450;SDS011;64029;48.244;9.188;2023-04-06T02:42:37;10.00;;;7.70;;
75450;SDS011;64029;48.244;9.188;2023-04-06T02:45:04;11.67;;;7.43;;
75450;SDS011;64029;48.244;9.188;2023-04-06T02:47:32;9.17;;;6.70;;
75450;SDS011;64029;48.244;9.188;2023-04-06T02:50:00;9.57;;;7.27;;
75450;SDS011;64029;48.244;9.188;2023-04-06T02:52:28;9.40;;;7.40;;
75450;SDS011;64029;48.244;9.188;2023-04-06T02:54:55;10.20;;;7.70;;
75450;SDS011;64029;48.244;9.188;2023-04-06T02:57:21;10.00;;;6.70;;
75450;SDS011;64029;48.244;9.188;2023-04-06T02:59:51;11.23;;;7.80;;
75450;SDS011;64029;48.244;9.188;2023-04-06T03:02:18;13.60;;;7.77;;
75450;SDS011;64029;48.244;9.188;2023-04-06T03:04:46;12.67;;;7.10;;
75450;SDS011;64029;48.244;9.188;2023-04-06T03:07:15;10.80;;;7.90;;
75450;SDS011;64029;48.244;9.188;2023-04-06T03:09:42;9.40;;;7.70;;
75450;SDS011;64029;48.244;9.188;2023-04-06T03:12:09;9.00;;;7.03;;
75450;SDS011;64029;48.244;9.188;2023-04-06T03:14:35;11.73;;;8.10;;
75450;SDS011;64029;48.244;9.188;2023-04-06T03:17:02;10.87;;;7.80;;
75450;SDS011;64029;48.244;9.188;2023-04-06T03:19:29;9.57;;;7.20;;
75450;SDS011;64029;48.244;9.188;2023-04-06T03:21:56;7.63;;;6.47;;
75450;SDS011;64029;48.244;9.188;2023-04-06T03:24:25;14.77;;;8.07;;
75450;SDS011;64029;48.244;9.188;2023-04-06T03:26:52;12.03;;;7.87;;
75450;SDS011;64029;48.244;9.188;2023-04-06T03:29:20;10.07;;;7.60;;
75450;SDS011;64029;48.244;9.188;2023-04-06T03:31:47;10.00;;;7.60;;
75450;SDS011;64029;48.244;9.188;2023-04-06T03:34:13;11.23;;;7.73;;
75450;SDS011;64029;48.244;9.188;2023-04-06T03:36:40;10.07;;;7.20;;
75450;SDS011;64029;48.244;9.188;2023-04-06T03:39:08;12.43;;;8.30;;
75450;SDS011;64029;48.244;9.188;2023-04-06T03:41:37;13.00;;;8.20;;
75450;SDS011;64029;48.244;9.188;2023-04-06T03:44:04;8.73;;;7.33;;
75450;SDS011;64029;48.244;9.188;2023-04-06T03:46:31;8.73;;;7.30;;
75450;SDS011;64029;48.244;9.188;2023-04-06T03:48:58;10.90;;;7.57;;
75450;SDS011;64029;48.244;9.188;2023-04-06T03:51:25;8.60;;;7.43;;
75450;SDS011;64029;48.244;9.188;2023-04-06T03:53:53;16.57;;;8.10;;
75450;SDS011;64029;48.244;9.188;2023-04-06T03:56:20;9.07;;;6.70;;
75450;SDS011;64029;48.244;9.188;2023-04-06T03:58:48;10.30;;;7.57;;
75450;SDS011;64029;48.244;9.188;2023-04-06T04:01:15;13.47;;;8.30;;
75450;SDS011;64029;48.244;9.188;2023-04-06T04:03:43;12.10;;;8.10;;
75450;SDS011;64029;48.244;9.188;2023-04-06T04:06:10;12.07;;;7.50;;
75450;SDS011;64029;48.244;9.188;2023-04-06T04:08:36;12.33;;;7.90;;
75450;SDS011;64029;48.244;9.188;2023-04-06T04:11:03;14.10;;;7.80;;
75450;SDS011;64029;48.244;9.188;2023-04-06T04:13:30;11.30;;;8.17;;
75450;SDS011;64029;48.244;9.188;2023-04-06T04:15:59;14.20;;;7.97;;
75450;SDS011;64029;48.244;9.188;2023-04-06T04:18:26;10.13;;;7.67;;
75450;SDS011;64029;48.244;9.188;2023-04-06T04:20:52;10.70;;;7.43;;
75450;SDS011;64029;48.244;9.188;2023-04-06T04:23:19;11.07;;;8.07;;
75450;SDS011;64029;48.244;9.188;2023-04-06T04:25:46;13.57;;;7.70;;
75450;SDS011;64029;48.244;9.188;2023-04-06T04:28:13;11.33;;;7.80;;
75450;SDS011;64029;48.244;9.188;2023-04-06T04:30:40;11.00;;;7.70;;
75450;SDS011;64029;48.244;9.188;2023-04-06T04:33:08;12.63;;;8.90;;
75450;SDS011;64029;48.244;9.188;2023-04-06T04:35:35;14.10;;;8.20;;
75450;SDS011;64029;48.244;9.188;2023-04-06T04:38:02;12.33;;;7.77;;
75450;SDS011;64029;48.244;9.188;2023-04-06T04:40:30;10.60;;;7.40;;
75450;SDS011;64029;48.244;9.188;2023-04-06T04:42:57;10.73;;;8.70;;
75450;SDS011;64029;48.244;9.188;2023-04-06T04:45:24;13.60;;;8.70;;
75450;SDS011;64029;48.244;9.188;2023-04-06T04:47:50;15.27;;;8.77;;
75450;SDS011;64029;48.244;9.188;2023-04-06T04:50:19;12.60;;;9.20;;
75450;SDS011;64029;48.244;9.188;2023-04-06T04:52:46;17.77;;;8.50;;
75450;SDS011;64029;48.244;9.188;2023-04-06T04:55:13;14.97;;;8.70;;
75450;SDS011;64029;48.244;9.188;2023-04-06T04:57:40;12.97;;;9.23;;
75450;SDS011;64029;48.244;9.188;2023-04-06T05:00:07;11.40;;;8.47;;
75450;SDS011;64029;48.244;9.188;2023-04-06T05:02:35;13.70;;;9.03;;
75450;SDS011;64029;48.244;9.188;2023-04-06T05:05:02;12.93;;;8.80;;
75450;SDS011;64029;48.244;9.188;2023-04-06T05:07:30;14.17;;;9.30;;
75450;SDS011;64029;48.244;9.188;2023-04-06T05:09:57;14.70;;;8.87;;
75450;SDS011;64029;48.244;9.188;2023-04-06T05:12:24;15.30;;;9.20;;
75450;SDS011;64029;48.244;9.188;2023-04-06T05:14:52;14.03;;;8.60;;
75450;SDS011;64029;48.244;9.188;2023-04-06T05:17:19;16.53;;;9.77;;
75450;SDS011;64029;48.244;9.188;2023-04-06T05:19:46;13.17;;;10.00;;
75450;SDS011;64029;48.244;9.188;2023-04-06T05:22:13;15.60;;;10.07;;
75450;SDS011;64029;48.244;9.188;2023-04-06T05:24:43;10.03;;;8.67;;
75450;SDS011;64029;48.244;9.188;2023-04-06T05:27:10;20.23;;;10.07;;
75450;SDS011;64029;48.244;9.188;2023-04-06T05:29:37;13.10;;;9.60;;
75450;SDS011;64029;48.244;9.188;2023-04-06T05:32:05;14.77;;;9.50;;
75450;SDS011;64029;48.244;9.188;2023-04-06T05:34:32;12.80;;;9.37;;
75450;SDS011;64029;48.244;9.188;2023-04-06T05:36:59;13.30;;;9.63;;
75450;SDS011;64029;48.244;9.188;2023-04-06T05:39:26;10.30;;;8.67;;
75450;SDS011;64029;48.244;9.188;2023-04-06T05:41:54;12.20;;;9.87;;
75450;SDS011;64029;48.244;9.188;2023-04-06T05:44:21;13.70;;;9.33;;
75450;SDS011;64029;48.244;9.188;2023-04-06T05:46:48;15.13;;;10.30;;
75450;SDS011;64029;48.244;9.188;2023-04-06T05:49:15;16.07;;;10.43;;
75450;SDS011;64029;48.244;9.188;2023-04-06T05:51:42;20.07;;;12.30;;
75450;SDS011;64029;48.244;9.188;2023-04-06T05:54:09;15.50;;;10.00;;
75450;SDS011;64029;48.244;9.188;2023-04-06T05:56:36;19.47;;;11.27;;
75450;SDS011;64029;48.244;9.188;2023-04-06T05:59:04;18.13;;;11.40;;
75450;SDS011;64029;48.244;9.188;2023-04-06T06:01:32;20.40;;;13.03;;
75450;SDS011;64029;48.244;9.188;2023-04-06T06:04:00;19.47;;;12.30;;
75450;SDS011;64029;48.244;9.188;2023-04-06T06:06:28;18.90;;;12.73;;
75450;SDS011;64029;48.244;9.188;2023-04-06T06:08:55;23.30;;;12.63;;
75450;SDS011;64029;48.244;9.188;2023-04-06T06:11:24;22.40;;;13.53;;
75450;SDS011;64029;48.244;9.188;2023-04-06T06:13:50;18.70;;;12.80;;
75450;SDS011;64029;48.244;9.188;2023-04-06T06:16:19;17.13;;;11.40;;
75450;SDS011;64029;48.244;9.188;2023-04-06T06:18:46;19.00;;;13.10;;
75450;SDS011;64029;48.244;9.188;2023-04-06T06:21:13;21.80;;;12.73;;
75450;SDS011;64029;48.244;9.188;2023-04-06T06:23:42;15.83;;;10.73;;
75450;SDS011;64029;48.244;9.188;2023-04-06T06:26:09;16.70;;;12.17;;
75450;SDS011;64029;48.244;9.188;2023-04-06T06:28:36;14.70;;;10.27;;
75450;SDS011;64029;48.244;9.188;2023-04-06T06:31:03;15.47;;;10.50;;
75450;SDS011;64029;48.244;9.188;2023-04-06T06:33:31;12.63;;;10.20;;
75450;SDS011;64029;48.244;9.188;2023-04-06T06:35:58;14.83;;;9.53;;
75450;SDS011;64029;48.244;9.188;2023-04-06T06:38:25;15.33;;;9.70;;
75450;SDS011;64029;48.244;9.188;2023-04-06T06:40:52;14.30;;;9.20;;
75450;SDS011;64029;48.244;9.188;2023-04-06T06:43:19;18.20;;;11.13;;
75450;SDS011;64029;48.244;9.188;2023-04-06T06:45:46;13.40;;;9.27;;
75450;SDS011;64029;48.244;9.188;2023-04-06T06:48:13;15.10;;;10.67;;
75450;SDS011;64029;48.244;9.188;2023-04-06T06:50:42;20.60;;;9.50;;
75450;SDS011;64029;48.244;9.188;2023-04-06T06:53:08;12.53;;;9.40;;
75450;SDS011;64029;48.244;9.188;2023-04-06T06:55:36;12.50;;;9.07;;
75450;SDS011;64029;48.244;9.188;2023-04-06T06:58:03;12.00;;;9.30;;
75450;SDS011;64029;48.244;9.188;2023-04-06T07:00:33;11.87;;;8.50;;
75450;SDS011;64029;48.244;9.188;2023-04-06T07:03:00;16.77;;;9.27;;
75450;SDS011;64029;48.244;9.188;2023-04-06T07:05:27;11.50;;;8.90;;
75450;SDS011;64029;48.244;9.188;2023-04-06T07:07:55;10.90;;;8.43;;
75450;SDS011;64029;48.244;9.188;2023-04-06T07:10:22;13.70;;;8.70;;
75450;SDS011;64029;48.244;9.188;2023-04-06T07:12:49;14.47;;;10.27;;
75450;SDS011;64029;48.244;9.188;2023-04-06T07:15:16;12.30;;;8.33;;
75450;SDS011;64029;48.244;9.188;2023-04-06T07:17:43;12.50;;;9.30;;
75450;SDS011;64029;48.244;9.188;2023-04-06T07:20:10;11.10;;;8.73;;
75450;SDS011;64029;48.244;9.188;2023-04-06T07:22:38;13.67;;;9.13;;
75450;SDS011;64029;48.244;9.188;2023-04-06T07:25:07;11.80;;;8.33;;
75450;SDS011;64029;48.244;9.188;2023-04-06T07:27:34;11.80;;;8.70;;
75450;SDS011;64029;48.244;9.188;2023-04-06T07:30:01;11.60;;;8.57;;
75450;SDS011;64029;48.244;9.188;2023-04-06T07:32:28;12.37;;;8.73;;
75450;SDS011;64029;48.244;9.188;2023-04-06T07:34:56;12.97;;;9.27;;
75450;SDS011;64029;48.244;9.188;2023-04-06T07:37:23;12.67;;;8.10;;
75450;SDS011;64029;48.244;9.188;2023-04-06T07:39:50;11.40;;;8.40;;
75450;SDS011;64029;48.244;9.188;2023-04-06T07:42:18;11.97;;;8.70;;
75450;SDS011;64029;48.244;9.188;2023-04-06T07:44:45;11.67;;;8.80;;
75450;SDS011;64029;48.244;9.188;2023-04-06T07:47:14;11.83;;;8.70;;
75450;SDS011;64029;48.244;9.188;2023-04-06T07:49:41;10.57;;;7.73;;
75450;SDS011;64029;48.244;9.188;2023-04-06T07:52:08;11.67;;;8.03;;
75450;SDS011;64029;48.244;9.188;2023-04-06T07:54:35;11.03;;;8.33;;
75450;SDS011;64029;48.244;9.188;2023-04-06T07:57:02;14.80;;;9.33;;
75450;SDS011;64029;48.244;9.188;2023-04-06T07:59:31;13.20;;;8.77;;
75450;SDS011;64029;48.244;9.188;2023-04-06T08:01:58;14.17;;;9.80;;
75450;SDS011;64029;48.244;9.188;2023-04-06T08:04:25;13.70;;;9.50;;
75450;SDS011;64029;48.244;9.188;2023-04-06T08:06:52;12.00;;;8.90;;
75450;SDS011;64029;48.244;9.188;2023-04-06T08:09:19;12.70;;;8.33;;
75450;SDS011;64029;48.244;9.188;2023-04-06T08:11:46;12.10;;;8.60;;
75450;SDS011;64029;48.244;9.188;2023-04-06T08:14:13;10.50;;;8.43;;
75450;SDS011;64029;48.244;9.188;2023-04-06T08:16:42;11.80;;;7.83;;
75450;SDS011;64029;48.244;9.188;2023-04-06T08:19:09;10.60;;;8.40;;
75450;SDS011;64029;48.244;9.188;2023-04-06T08:21:36;11.17;;;7.70;;
75450;SDS011;64029;48.244;9.188;2023-04-06T08:24:04;13.77;;;7.90;;
75450;SDS011;64029;48.244;9.188;2023-04-06T08:26:32;11.50;;;7.43;;
75450;SDS011;64029;48.244;9.188;2023-04-06T08:28:59;11.50;;;7.00;;
75450;SDS011;64029;48.244;9.188;2023-04-06T08:31:26;12.70;;;7.33;;
75450;SDS011;64029;48.244;9.188;2023-04-06T08:33:54;11.30;;;7.23;;
75450;SDS011;64029;48.244;9.188;2023-04-06T08:36:21;14.17;;;7.60;;
75450;SDS011;64029;48.244;9.188;2023-04-06T08:38:48;10.00;;;7.40;;
75450;SDS011;64029;48.244;9.188;2023-04-06T08:41:16;13.30;;;7.40;;
75450;SDS011;64029;48.244;9.188;2023-04-06T08:43:44;8.97;;;6.30;;
75450;SDS011;64029;48.244;9.188;2023-04-06T08:46:13;12.10;;;6.70;;
75450;SDS011;64029;48.244;9.188;2023-04-06T08:48:41;9.83;;;7.03;;
75450;SDS011;64029;48.244;9.188;2023-04-06T08:51:10;10.97;;;6.60;;
75450;SDS011;64029;48.244;9.188;2023-04-06T08:53:38;8.60;;;6.97;;
75450;SDS011;64029;48.244;9.188;2023-04-06T08:56:05;8.60;;;5.97;;
75450;SDS011;64029;48.244;9.188;2023-04-06T08:58:34;9.57;;;5.37;;
75450;SDS011;64029;48.244;9.188;2023-04-06T09:01:05;8.27;;;5.53;;
75450;SDS011;64029;48.244;9.188;2023-04-06T09:03:35;5.30;;;4.80;;
75450;SDS011;64029;48.244;9.188;2023-04-06T09:06:04;5.97;;;5.37;;
75450;SDS011;64029;48.244;9.188;2023-04-06T09:08:34;6.10;;;5.30;;
75450;SDS011;64029;48.244;9.188;2023-04-06T09:11:01;6.10;;;5.50;;
75450;SDS011;64029;48.244;9.188;2023-04-06T09:13:28;8.97;;;5.80;;
75450;SDS011;64029;48.244;9.188;2023-04-06T09:16:00;6.47;;;5.37;;
75450;SDS011;64029;48.244;9.188;2023-04-06T09:18:29;9.37;;;5.80;;
75450;SDS011;64029;48.244;9.188;2023-04-06T09:20:57;7.47;;;5.33;;
75450;SDS011;64029;48.244;9.188;2023-04-06T09:23:25;7.13;;;5.60;;
75450;SDS011;64029;48.244;9.188;2023-04-06T09:26:04;7.17;;;5.40;;
75450;SDS011;64029;48.244;9.188;2023-04-06T09:28:40;9.63;;;6.77;;
75450;SDS011;64029;48.244;9.188;2023-04-06T09:31:08;9.43;;;7.23;;
75450;SDS011;64029;48.244;9.188;2023-04-06T09:33:37;8.90;;;6.60;;
75450;SDS011;64029;48.244;9.188;2023-04-06T09:36:04;8.60;;;6.40;;
75450;SDS011;64029;48.244;9.188;2023-04-06T09:38:32;8.80;;;6.00;;
75450;SDS011;64029;48.244;9.188;2023-04-06T09:40:59;10.13;;;6.10;;
75450;SDS011;64029;48.244;9.188;2023-04-06T09:43:28;7.90;;;6.00;;
75450;SDS011;64029;48.244;9.188;2023-04-06T09:45:55;8.90;;;6.43;;
75450;SDS011;64029;48.244;9.188;2023-04-06T09:48:22;9.77;;;7.40;;
75450;SDS011;64029;48.244;9.188;2023-04-06T09:50:52;12.47;;;7.93;;
75450;SDS011;64029;48.244;9.188;2023-04-06T09:53:26;8.80;;;6.57;;
75450;SDS011;64029;48.244;9.188;2023-04-06T09:55:57;10.90;;;8.47;;
75450;SDS011;64029;48.244;9.188;2023-04-06T09:58:29;11.67;;;8.20;;
75450;SDS011;64029;48.244;9.188;2023-04-06T10:01:01;8.97;;;8.07;;
75450;SDS011;64029;48.244;9.188;2023-04-06T10:03:34;10.20;;;7.60;;
75450;SDS011;64029;48.244;9.188;2023-04-06T10:06:11;9.60;;;6.90;;
75450;SDS011;64029;48.244;9.188;2023-04-06T10:08:40;10.47;;;7.40;;
75450;SDS011;64029;48.244;9.188;2023-04-06T10:11:11;8.47;;;6.60;;
75450;SDS011;64029;48.244;9.188;2023-04-06T10:13:40;9.90;;;7.43;;
75450;SDS011;64029;48.244;9.188;2023-04-06T10:16:08;8.90;;;7.33;;
75450;SDS011;64029;48.244;9.188;2023-04-06T10:18:35;8.07;;;6.70;;
75450;SDS011;64029;48.244;9.188;2023-04-06T10:21:06;8.47;;;6.83;;
75450;SDS011;64029;48.244;9.188;2023-04-06T10:23:35;11.50;;;7.37;;
75450;SDS011;64029;48.244;9.188;2023-04-06T10:26:12;11.00;;;6.27;;
75450;SDS011;64029;48.244;9.188;2023-04-06T10:28:41;6.93;;;6.00;;
75450;SDS011;64029;48.244;9.188;2023-04-06T10:31:08;8.90;;;6.00;;
75450;SDS011;64029;48.244;9.188;2023-04-06T10:33:35;9.03;;;6.80;;
75450;SDS011;64029;48.244;9.188;2023-04-06T10:36:09;8.00;;;6.47;;
75450;SDS011;64029;48.244;9.188;2023-04-06T10:38:37;9.50;;;7.10;;
75450;SDS011;64029;48.244;9.188;2023-04-06T10:41:05;7.50;;;5.83;;
75450;SDS011;64029;48.244;9.188;2023-04-06T10:43:33;7.80;;;5.87;;
75450;SDS011;64029;48.244;9.188;2023-04-06T10:46:03;7.13;;;6.20;;
75450;SDS011;64029;48.244;9.188;2023-04-06T10:48:41;7.70;;;5.77;;
75450;SDS011;64029;48.244;9.188;2023-04-06T10:51:11;8.70;;;6.57;;
75450;SDS011;64029;48.244;9.188;2023-04-06T10:53:38;9.87;;;6.50;;
75450;SDS011;64029;48.244;9.188;2023-04-06T10:56:09;8.80;;;5.83;;
75450;SDS011;64029;48.244;9.188;2023-04-06T10:58:37;7.90;;;5.60;;
75450;SDS011;64029;48.244;9.188;2023-04-06T11:01:05;10.63;;;6.10;;
75450;SDS011;64029;48.244;9.188;2023-04-06T11:03:36;9.90;;;5.80;;
75450;SDS011;64029;48.244;9.188;2023-04-06T11:06:09;9.80;;;6.43;;
75450;SDS011;64029;48.244;9.188;2023-04-06T11:08:36;8.97;;;6.40;;
75450;SDS011;64029;48.244;9.188;2023-04-06T11:11:05;7.07;;;5.63;;
75450;SDS011;64029;48.244;9.188;2023-04-06T11:13:37;8.33;;;6.93;;
75450;SDS011;64029;48.244;9.188;2023-04-06T11:16:06;8.57;;;6.30;;
75450;SDS011;64029;48.244;9.188;2023-04-06T11:18:45;6.90;;;5.83;;
75450;SDS011;64029;48.244;9.188;2023-04-06T11:21:16;9.80;;;6.50;;
75450;SDS011;64029;48.244;9.188;2023-04-06T11:23:46;8.83;;;5.93;;
75450;SDS011;64029;48.244;9.188;2023-04-06T11:26:13;8.53;;;5.70;;
75450;SDS011;64029;48.244;9.188;2023-04-06T11:28:41;9.40;;;5.50;;
75450;SDS011;64029;48.244;9.188;2023-04-06T11:31:10;7.40;;;5.40;;
75450;SDS011;64029;48.244;9.188;2023-04-06T11:33:37;8.50;;;5.77;;
75450;SDS011;64029;48.244;9.188;2023-04-06T11:36:05;5.77;;;5.17;;
75450;SDS011;64029;48.244;9.188;2023-04-06T11:38:33;5.47;;;4.97;;
75450;SDS011;64029;48.244;9.188;2023-04-06T11:41:00;7.40;;;5.57;;
75450;SDS011;64029;48.244;9.188;2023-04-06T11:43:28;10.10;;;6.87;;
75450;SDS011;64029;48.244;9.188;2023-04-06T11:45:59;6.40;;;5.70;;
75450;SDS011;64029;48.244;9.188;2023-04-06T11:48:29;7.60;;;5.90;;
75450;SDS011;64029;48.244;9.188;2023-04-06T11:50:57;8.80;;;6.60;;
75450;SDS011;64029;48.244;9.188;2023-04-06T11:53:26;13.00;;;6.00;;
75450;SDS011;64029;48.244;9.188;2023-04-06T11:55:53;5.80;;;5.10;;
75450;SDS011;64029;48.244;9.188;2023-04-06T11:58:20;6.93;;;4.67;;
75450;SDS011;64029;48.244;9.188;2023-04-06T12:00:47;5.57;;;4.80;;
75450;SDS011;64029;48.244;9.188;2023-04-06T12:03:14;4.77;;;4.27;;
75450;SDS011;64029;48.244;9.188;2023-04-06T12:05:43;6.80;;;5.53;;
75450;SDS011;64029;48.244;9.188;2023-04-06T12:08:10;6.67;;;5.13;;
75450;SDS011;64029;48.244;9.188;2023-04-06T12:10:37;5.87;;;5.33;;
75450;SDS011;64029;48.244;9.188;2023-04-06T12:13:04;6.27;;;5.20;;
75450;SDS011;64029;48.244;9.188;2023-04-06T12:15:31;6.47;;;5.20;;
75450;SDS011;64029;48.244;9.188;2023-04-06T12:17:58;7.63;;;5.50;;
75450;SDS011;64029;48.244;9.188;2023-04-06T12:20:24;6.07;;;5.03;;
75450;SDS011;64029;48.244;9.188;2023-04-06T12:22:53;7.10;;;5.20;;
75450;SDS011;64029;48.244;9.188;2023-04-06T12:25:20;5.63;;;4.37;;
75450;SDS011;64029;48.244;9.188;2023-04-06T12:27:47;5.93;;;3.97;;
75450;SDS011;64029;48.244;9.188;2023-04-06T12:30:14;7.00;;;4.33;;
75450;SDS011;64029;48.244;9.188;2023-04-06T12:32:41;5.73;;;4.50;;
75450;SDS011;64029;48.244;9.188;2023-04-06T12:35:09;7.23;;;4.63;;
75450;SDS011;64029;48.244;9.188;2023-04-06T12:37:37;4.47;;;3.97;;
75450;SDS011;64029;48.244;9.188;2023-04-06T12:40:06;6.87;;;4.90;;
75450;SDS011;64029;48.244;9.188;2023-04-06T12:42:35;7.73;;;4.37;;
75450;SDS011;64029;48.244;9.188;2023-04-06T12:45:02;5.93;;;5.10;;
75450;SDS011;64029;48.244;9.188;2023-04-06T12:47:29;6.37;;;4.23;;
75450;SDS011;64029;48.244;9.188;2023-04-06T12:49:57;10.10;;;5.70;;
75450;SDS011;64029;48.244;9.188;2023-04-06T12:52:24;9.00;;;4.87;;
75450;SDS011;64029;48.244;9.188;2023-04-06T12:54:52;7.00;;;5.50;;
75450;SDS011;64029;48.244;9.188;2023-04-06T12:57:20;6.90;;;4.80;;
75450;SDS011;64029;48.244;9.188;2023-04-06T12:59:50;5.27;;;4.77;;
75450;SDS011;64029;48.244;9.188;2023-04-06T13:02:17;6.30;;;3.87;;
75450;SDS011;64029;48.244;9.188;2023-04-06T13:04:45;7.10;;;5.17;;
75450;SDS011;64029;48.244;9.188;2023-04-06T13:07:12;4.73;;;4.20;;
75450;SDS011;64029;48.244;9.188;2023-04-06T13:09:39;4.83;;;4.07;;
75450;SDS011;64029;48.244;9.188;2023-04-06T13:12:06;6.10;;;4.27;;
75450;SDS011;64029;48.244;9.188;2023-04-06T13:14:34;8.43;;;4.87;;
75450;SDS011;64029;48.244;9.188;2023-04-06T13:20:23;7.50;;;4.50;;
75450;SDS011;64029;48.244;9.188;2023-04-06T13:22:51;9.47;;;4.97;;
75450;SDS011;64029;48.244;9.188;2023-04-06T13:25:18;6.13;;;4.90;;
75450;SDS011;64029;48.244;9.188;2023-04-06T13:27:45;6.17;;;5.13;;
75450;SDS011;64029;48.244;9.188;2023-04-06T13:30:15;8.57;;;4.70;;
75450;SDS011;64029;48.244;9.188;2023-04-06T13:32:42;6.63;;;3.70;;
75450;SDS011;64029;48.244;9.188;2023-04-06T13:35:09;5.93;;;4.10;;
75450;SDS011;64029;48.244;9.188;2023-04-06T13:37:36;5.10;;;4.60;;
75450;SDS011;64029;48.244;9.188;2023-04-06T13:40:04;4.93;;;4.13;;
75450;SDS011;64029;48.244;9.188;2023-04-06T13:42:32;4.60;;;3.93;;
75450;SDS011;64029;48.244;9.188;2023-04-06T13:45:00;5.27;;;4.30;;
75450;SDS011;64029;48.244;9.188;2023-04-06T13:47:29;4.27;;;3.87;;
75450;SDS011;64029;48.244;9.188;2023-04-06T13:49:57;4.90;;;3.37;;
75450;SDS011;64029;48.244;9.188;2023-04-06T13:52:24;4.57;;;3.80;;
75450;SDS011;64029;48.244;9.188;2023-04-06T13:54:51;4.80;;;4.30;;
75450;SDS011;64029;48.244;9.188;2023-04-06T13:57:18;6.83;;;3.47;;
75450;SDS011;64029;48.244;9.188;2023-04-06T13:59:45;4.60;;;3.87;;
75450;SDS011;64029;48.244;9.188;2023-04-06T14:02:13;4.03;;;3.30;;
75450;SDS011;64029;48.244;9.188;2023-04-06T14:04:41;5.67;;;3.50;;
75450;SDS011;64029;48.244;9.188;2023-04-06T14:07:08;5.20;;;3.63;;
75450;SDS011;64029;48.244;9.188;2023-04-06T14:09:35;5.43;;;4.00;;
75450;SDS011;64029;48.244;9.188;2023-04-06T14:12:02;4.13;;;3.73;;
75450;SDS011;64029;48.244;9.188;2023-04-06T14:14:29;5.30;;;3.73;;
75450;SDS011;64029;48.244;9.188;2023-04-06T14:16:56;5.67;;;4.20;;
75450;SDS011;64029;48.244;9.188;2023-04-06T14:19:23;3.77;;;3.43;;
75450;SDS011;64029;48.244;9.188;2023-04-06T14:21:51;6.03;;;5.17;;
75450;SDS011;64029;48.244;9.188;2023-04-06T14:24:18;4.57;;;3.77;;
75450;SDS011;64029;48.244;9.188;2023-04-06T14:26:46;6.47;;;4.57;;
75450;SDS011;64029;48.244;9.188;2023-04-06T14:29:13;5.80;;;4.37;;
75450;SDS011;64029;48.244;9.188;2023-04-06T14:31:40;4.67;;;3.60;;
75450;SDS011;64029;48.244;9.188;2023-04-06T14:34:07;4.83;;;4.30;;
75450;SDS011;64029;48.244;9.188;2023-04-06T14:36:34;4.87;;;3.90;;
75450;SDS011;64029;48.244;9.188;2023-04-06T14:39:04;6.20;;;4.50;;
75450;SDS011;64029;48.244;9.188;2023-04-06T14:41:32;4.37;;;3.47;;
75450;SDS011;64029;48.244;9.188;2023-04-06T14:44:00;4.53;;;4.03;;
75450;SDS011;64029;48.244;9.188;2023-04-06T14:46:27;5.47;;;4.10;;